createdAt,value
2023-01-11T00:00:58.706Z,0.6
2023-01-11T00:02:06.417Z,0.5
2023-01-11T00:03:16.078Z,0.6
2023-01-11T00:04:24.760Z,0.7
2023-01-11T00:05:33.417Z,0.6
2023-01-11T00:06:43.136Z,0.5
2023-01-11T00:07:51.897Z,0.7
2023-01-11T00:09:00.573Z,0.5
2023-01-11T00:10:10.285Z,0.5
2023-01-11T00:11:19.002Z,0.7
2023-01-11T00:12:28.709Z,0.7
2023-01-11T00:13:37.363Z,0.6
2023-01-11T00:14:47.034Z,0.8
2023-01-11T00:15:56.785Z,0.8
2023-01-11T00:17:05.379Z,0.7
2023-01-11T00:18:14.060Z,0.6
2023-01-11T00:19:23.718Z,0.8
2023-01-11T00:20:31.433Z,0.7
2023-01-11T00:21:41.129Z,0.8
2023-01-11T00:22:49.797Z,0.6
2023-01-11T00:23:57.478Z,0.6
2023-01-11T00:25:07.162Z,0.7
2023-01-11T00:26:16.828Z,0.6
2023-01-11T00:27:26.503Z,0.8
2023-01-11T00:28:36.204Z,0.6
2023-01-11T00:29:43.817Z,0.7
2023-01-11T00:30:53.535Z,0.9
2023-01-11T00:32:02.295Z,0.7
2023-01-11T00:33:10.955Z,0.8
2023-01-11T00:34:20.664Z,0.9
2023-01-11T00:35:30.344Z,0.9
2023-01-11T00:36:40.031Z,0.8
2023-01-11T00:37:49.696Z,0.8
2023-01-11T00:38:57.359Z,0.8
2023-01-11T00:40:07.036Z,0.9
2023-01-11T00:41:15.712Z,1.1
2023-01-11T00:42:25.412Z,0.7
2023-01-11T00:43:35.082Z,0.8
2023-01-11T00:44:43.774Z,0.8
2023-01-11T00:45:52.458Z,0.9
2023-01-11T00:47:02.095Z,0.8
2023-01-11T00:48:09.777Z,0.9
2023-01-11T00:49:18.451Z,0.8
2023-01-11T00:50:28.139Z,1.1
2023-01-11T00:51:37.812Z,0.9
2023-01-11T00:52:47.498Z,0.9
2023-01-11T00:53:57.241Z,1.1
2023-01-11T00:55:05.896Z,1.2
2023-01-11T00:56:14.574Z,1
2023-01-11T00:57:22.225Z,1.2
2023-01-11T00:58:31.918Z,1.6
2023-01-11T00:59:40.632Z,1.2
2023-01-11T01:00:49.295Z,1
2023-01-11T01:01:58.940Z,1.3
2023-01-11T01:03:07.625Z,1.3
2023-01-11T01:04:16.331Z,1.1
2023-01-11T01:05:25.991Z,1.5
2023-01-11T01:06:34.643Z,1.7
2023-01-11T01:07:44.340Z,1.5
2023-01-11T01:08:53.130Z,1.6
2023-01-11T01:10:02.720Z,1.9
2023-01-11T01:11:12.418Z,1.6
2023-01-11T01:12:20.093Z,1.7
2023-01-11T01:13:28.758Z,1.9
2023-01-11T01:14:38.444Z,3.3
2023-01-11T01:15:46.292Z,2.3
2023-01-11T01:16:55.938Z,2.8
2023-01-11T01:18:04.573Z,3.4
2023-01-11T01:19:12.239Z,3.4
2023-01-11T01:20:21.912Z,2.7
2023-01-11T01:21:29.586Z,2.4
2023-01-11T01:22:38.265Z,2
2023-01-11T01:23:47.934Z,1.8
2023-01-11T01:24:55.623Z,1.1
2023-01-11T01:26:05.262Z,1.5
2023-01-11T01:27:14.936Z,1.4
2023-01-11T01:28:22.613Z,1
2023-01-11T01:29:32.312Z,1.1
2023-01-11T01:30:41.023Z,0.9
2023-01-11T01:31:49.728Z,0.9
2023-01-11T01:32:59.428Z,0.7
2023-01-11T01:34:08.208Z,0.8
2023-01-11T01:35:17.957Z,0.6
2023-01-11T01:36:25.701Z,0.5
2023-01-11T01:37:35.375Z,0.4
2023-01-11T01:38:44.049Z,0.4
2023-01-11T01:39:51.736Z,0.5
2023-01-11T01:41:00.422Z,0.5
2023-01-11T01:42:10.066Z,0.5
2023-01-11T01:43:18.792Z,0.5
2023-01-11T01:44:27.469Z,0.6
2023-01-11T01:45:36.215Z,0.6
2023-01-11T01:46:45.915Z,0.4
2023-01-11T01:47:55.583Z,0.7
2023-01-11T01:49:05.272Z,0.6
2023-01-11T01:50:14.939Z,0.6
2023-01-11T01:51:23.621Z,0.5
2023-01-11T01:52:33.279Z,0.5
2023-01-11T01:53:41.969Z,0.4
2023-01-11T01:54:49.626Z,0.5
2023-01-11T01:55:59.314Z,0.6
2023-01-11T01:57:09.047Z,0.5
2023-01-11T01:58:18.705Z,0.4
2023-01-11T01:59:28.457Z,0.6
2023-01-11T02:00:38.169Z,0.3
2023-01-11T02:01:47.936Z,0.4
2023-01-11T02:02:57.568Z,0.4
2023-01-11T02:04:06.204Z,0.4
2023-01-11T02:05:15.913Z,0.5
2023-01-11T02:06:25.622Z,0.8
2023-01-11T02:07:34.236Z,0.6
2023-01-11T02:08:43.917Z,0.5
2023-01-11T02:09:53.578Z,0.7
2023-01-11T02:11:02.245Z,0.5
2023-01-11T02:12:11.926Z,0.8
2023-01-11T02:13:19.582Z,0.6
2023-01-11T02:14:29.307Z,0.7
2023-01-11T02:15:39.051Z,0.6
2023-01-11T02:16:46.623Z,0.7
2023-01-11T02:17:56.306Z,0.9
2023-01-11T02:19:04.984Z,0.7
2023-01-11T02:20:13.666Z,1.4
2023-01-11T02:21:23.475Z,1.8
2023-01-11T02:22:32.052Z,1.8
2023-01-11T02:23:41.706Z,2
2023-01-11T02:24:50.373Z,2
2023-01-11T02:25:59.067Z,2.3
2023-01-11T02:27:08.815Z,1.8
2023-01-11T02:28:17.467Z,1.9
2023-01-11T02:29:27.176Z,2.4
2023-01-11T02:30:36.842Z,2.5
2023-01-11T02:31:45.536Z,2
2023-01-11T02:32:55.217Z,2.2
2023-01-11T02:34:03.871Z,2
2023-01-11T02:35:11.538Z,1.2
2023-01-11T02:36:21.212Z,0.9
2023-01-11T02:37:28.925Z,0.9
2023-01-11T02:38:38.571Z,1.5
2023-01-11T02:39:48.325Z,1.7
2023-01-11T02:40:56.053Z,1.4
2023-01-11T02:42:04.727Z,1.7
2023-01-11T02:43:14.457Z,2.2
2023-01-11T02:44:23.125Z,1.7
2023-01-11T02:45:32.784Z,1.8
2023-01-11T02:46:40.498Z,1.9
2023-01-11T02:47:50.133Z,1.4
2023-01-11T02:48:59.841Z,1.8
2023-01-11T02:50:07.543Z,1.8
2023-01-11T02:51:17.219Z,1.7
2023-01-11T02:52:25.873Z,1.5
2023-01-11T02:53:34.586Z,1.8
2023-01-11T02:54:44.234Z,1.8
2023-01-11T02:55:53.926Z,1.8
2023-01-11T02:57:03.586Z,1.6
2023-01-11T02:58:13.261Z,1.5
2023-01-11T02:59:21.909Z,1.4
2023-01-11T03:00:31.608Z,1.4
2023-01-11T03:01:41.300Z,1.6
2023-01-11T03:02:49.915Z,1.5
2023-01-11T03:03:59.576Z,1.5
2023-01-11T03:05:08.228Z,1
2023-01-11T03:06:17.912Z,1.3
2023-01-11T03:07:27.565Z,1.8
2023-01-11T03:08:36.217Z,1.5
2023-01-11T03:09:44.895Z,1.6
2023-01-11T03:10:54.527Z,1.4
2023-01-11T03:12:01.195Z,1
2023-01-11T03:13:09.857Z,1.6
2023-01-11T03:14:17.512Z,1.2
2023-01-11T03:15:27.183Z,1.4
2023-01-11T03:16:36.825Z,1.2
2023-01-11T03:17:44.500Z,1.2
2023-01-11T03:18:54.155Z,1.1
2023-01-11T03:20:02.786Z,0.9
2023-01-11T03:21:11.448Z,0.8
2023-01-11T03:22:21.109Z,1
2023-01-11T03:23:28.765Z,0.7
2023-01-11T03:24:38.425Z,0.5
2023-01-11T03:25:48.110Z,0.7
2023-01-11T03:26:56.743Z,0.8
2023-01-11T03:28:05.403Z,0.6
2023-01-11T03:29:14.093Z,0.7
2023-01-11T03:30:23.762Z,0.7
2023-01-11T03:31:32.449Z,0.7
2023-01-11T03:32:41.080Z,0.6
2023-01-11T03:33:50.747Z,0.4
2023-01-11T03:34:58.431Z,0.5
2023-01-11T03:36:07.061Z,0.8
2023-01-11T03:37:16.783Z,0.6
2023-01-11T03:38:24.416Z,0.5
2023-01-11T03:39:34.100Z,0.6
2023-01-11T03:40:43.794Z,0.5
2023-01-11T03:41:52.465Z,0.5
2023-01-11T03:43:02.102Z,0.6
2023-01-11T03:44:10.753Z,0.5
2023-01-11T03:45:19.448Z,0.5
2023-01-11T03:46:28.155Z,0.6
2023-01-11T03:47:36.815Z,0.5
2023-01-11T03:48:46.453Z,0.5
2023-01-11T03:49:56.116Z,0.7
2023-01-11T03:51:05.833Z,0.6
2023-01-11T03:52:15.499Z,0.7
2023-01-11T03:53:23.148Z,0.7
2023-01-11T03:54:31.799Z,1
2023-01-11T03:55:41.531Z,0.8
2023-01-11T03:56:50.193Z,0.7
2023-01-11T03:58:00.899Z,0.7
2023-01-11T03:59:10.562Z,0.8
2023-01-11T04:00:18.213Z,0.5
2023-01-11T04:01:27.879Z,0.8
2023-01-11T04:02:36.550Z,0.8
2023-01-11T04:03:45.249Z,0.9
2023-01-11T04:04:54.919Z,0.8
2023-01-11T04:06:02.623Z,0.8
2023-01-11T04:07:12.277Z,0.7
2023-01-11T04:08:20.964Z,0.9
2023-01-11T04:09:28.626Z,0.9
2023-01-11T04:10:38.285Z,0.8
2023-01-11T04:11:46.950Z,0.6
2023-01-11T04:12:55.646Z,0.6
2023-01-11T04:14:05.308Z,1
2023-01-11T04:15:14.026Z,0.9
2023-01-11T04:16:23.775Z,0.5
2023-01-11T04:17:32.408Z,0.4
2023-01-11T04:18:41.145Z,0.5
2023-01-11T04:19:50.792Z,0.5
2023-01-11T04:20:59.467Z,0.4
2023-01-11T04:22:08.134Z,0.4
2023-01-11T04:23:17.825Z,0.3
2023-01-11T04:24:25.471Z,0.4
2023-01-11T04:25:35.143Z,0.3
2023-01-11T04:26:43.839Z,0.4
2023-01-11T04:27:51.468Z,0.4
2023-01-11T04:29:01.123Z,0.4
2023-01-11T04:30:09.846Z,0.3
2023-01-11T04:31:18.508Z,0.4
2023-01-11T04:32:28.144Z,0.6
2023-01-11T04:33:35.821Z,0.5
2023-01-11T04:34:45.508Z,0.7
2023-01-11T04:35:54.207Z,0.8
2023-01-11T04:37:02.852Z,0.7
2023-01-11T04:38:12.513Z,1.1
2023-01-11T04:39:20.172Z,0.8
2023-01-11T04:40:28.840Z,0.9
2023-01-11T04:41:38.492Z,0.9
2023-01-11T04:42:47.150Z,1
2023-01-11T04:43:56.827Z,0.9
2023-01-11T04:45:06.498Z,1
2023-01-11T04:46:15.174Z,1.1
2023-01-11T04:47:24.821Z,1.1
2023-01-11T04:48:34.468Z,1.1
2023-01-11T04:49:44.223Z,1.2
2023-01-11T04:50:53.883Z,1.2
2023-01-11T04:52:03.577Z,1.1
2023-01-11T04:53:13.275Z,1.1
2023-01-11T04:54:22.942Z,1.5
2023-01-11T04:55:30.623Z,1.2
2023-01-11T04:56:40.286Z,1.3
2023-01-11T04:57:50.002Z,1.2
2023-01-11T04:58:58.637Z,1.3
2023-01-11T05:00:08.299Z,1
2023-01-11T05:01:16.047Z,0.9
2023-01-11T05:02:25.656Z,0.8
2023-01-11T05:03:34.296Z,0.8
2023-01-11T05:04:42.947Z,0.7
2023-01-11T05:05:53.599Z,0.7
2023-01-11T05:07:01.460Z,0.9
2023-01-11T05:08:10.242Z,0.6
2023-01-11T05:09:19.925Z,1
2023-01-11T05:10:28.665Z,1.2
2023-01-11T05:11:37.346Z,0.7
2023-01-11T05:12:47.062Z,1.8
2023-01-11T05:13:54.721Z,1.4
2023-01-11T05:15:03.383Z,1.2
2023-01-11T05:16:13.055Z,1.3
2023-01-11T05:17:21.770Z,1.5
2023-01-11T05:18:31.479Z,1.6
2023-01-11T05:19:39.105Z,1.5
2023-01-11T05:20:48.798Z,1.2
2023-01-11T05:21:57.481Z,1.2
2023-01-11T05:23:05.131Z,1
2023-01-11T05:24:14.865Z,1.3
2023-01-11T05:25:23.636Z,1.2
2023-01-11T05:26:34.787Z,1
2023-01-11T05:27:43.397Z,1
2023-01-11T05:28:52.073Z,0.9
2023-01-11T05:30:01.967Z,0.9
2023-01-11T05:31:10.607Z,1.2
2023-01-11T05:32:20.275Z,0.9
2023-01-11T05:33:28.932Z,1
2023-01-11T05:34:36.619Z,1
2023-01-11T05:35:46.260Z,1
2023-01-11T05:36:53.966Z,1.3
2023-01-11T05:38:02.636Z,1.1
2023-01-11T05:39:12.303Z,1.1
2023-01-11T05:40:22.156Z,1.1
2023-01-11T05:41:31.839Z,1.6
2023-01-11T05:42:42.041Z,1.2
2023-01-11T05:43:50.680Z,1.6
2023-01-11T05:45:00.512Z,1.3
2023-01-11T05:46:17.351Z,1.4
2023-01-11T05:47:27.466Z,1.4
2023-01-11T05:48:37.648Z,1.6
2023-01-11T05:49:46.717Z,1.5
2023-01-11T05:50:56.471Z,1.5
2023-01-11T05:52:06.217Z,1.6
2023-01-11T05:53:15.035Z,1.7
2023-01-11T05:54:23.719Z,1.7
2023-01-11T05:55:33.573Z,1.7
2023-01-11T05:56:42.268Z,1.7
2023-01-11T05:57:52.108Z,1.7
2023-01-11T05:59:02.347Z,1.6
2023-01-11T06:00:10.244Z,1.3
2023-01-11T06:01:20.046Z,1.6
2023-01-11T06:02:27.862Z,1.8
2023-01-11T06:03:37.491Z,1.6
2023-01-11T06:04:47.266Z,1.8
2023-01-11T06:05:56.079Z,1.7
2023-01-11T06:07:05.781Z,2.3
2023-01-11T06:08:15.687Z,1.7
2023-01-11T06:09:24.419Z,2
2023-01-11T06:10:34.153Z,1.9
2023-01-11T06:11:42.880Z,1.7
2023-01-11T06:12:52.627Z,1.6
2023-01-11T06:14:02.303Z,2.1
2023-01-11T06:15:10.004Z,1.9
2023-01-11T06:16:19.823Z,2.1
2023-01-11T06:17:28.572Z,1.8
2023-01-11T06:18:36.243Z,1.3
2023-01-11T06:19:45.990Z,1.7
2023-01-11T06:20:54.708Z,1.8
2023-01-11T06:22:03.511Z,1.7
2023-01-11T06:23:13.206Z,1.6
2023-01-11T06:24:21.912Z,1.6
2023-01-11T06:25:31.612Z,1.7
2023-01-11T06:26:41.405Z,1.8
2023-01-11T06:27:50.120Z,2.1
2023-01-11T06:28:59.817Z,2.3
2023-01-11T06:30:09.552Z,2.5
2023-01-11T06:31:19.446Z,2.6
2023-01-11T06:32:29.034Z,2.4
2023-01-11T06:33:37.828Z,2.2
2023-01-11T06:34:47.533Z,2.4
2023-01-11T06:35:57.250Z,1.7
2023-01-11T06:37:05.948Z,1.7
2023-01-11T06:38:15.691Z,1.8
2023-01-11T06:39:24.457Z,1.6
2023-01-11T06:40:34.172Z,1.4
2023-01-11T06:41:43.871Z,1.2
2023-01-11T06:42:52.547Z,1.2
2023-01-11T06:44:02.250Z,1.1
2023-01-11T06:45:11.942Z,1.1
2023-01-11T06:46:21.751Z,1.1
2023-01-11T06:47:31.366Z,1.1
2023-01-11T06:48:39.036Z,1.1
2023-01-11T06:49:48.766Z,0.9
2023-01-11T06:50:58.566Z,1.3
2023-01-11T06:52:07.269Z,1.2
2023-01-11T06:53:16.991Z,1.1
2023-01-11T06:54:25.640Z,1.5
2023-01-11T06:55:32.303Z,1.2
2023-01-11T06:56:42.010Z,1
2023-01-11T06:57:50.826Z,1.3
2023-01-11T06:58:59.495Z,0.9
2023-01-11T07:00:09.229Z,1.1
2023-01-11T07:01:18.014Z,0.9
2023-01-11T07:02:27.675Z,1.2
2023-01-11T07:03:36.342Z,1.3
2023-01-11T07:04:45.096Z,1
2023-01-11T07:05:54.726Z,1
2023-01-11T07:07:03.436Z,1.1
2023-01-11T07:08:12.150Z,1.2
2023-01-11T07:09:21.851Z,1.1
2023-01-11T07:10:30.616Z,1.6
2023-01-11T07:11:40.149Z,1.3
2023-01-11T07:12:49.843Z,0.9
2023-01-11T07:13:58.550Z,1.3
2023-01-11T07:15:08.254Z,1.5
2023-01-11T07:16:16.949Z,1.5
2023-01-11T07:17:26.598Z,1.5
2023-01-11T07:18:36.294Z,1
2023-01-11T07:19:44.962Z,1.5
2023-01-11T07:20:54.637Z,1.1
2023-01-11T07:22:03.353Z,1.2
2023-01-11T07:23:12.000Z,0.9
2023-01-11T07:24:21.680Z,1.2
2023-01-11T07:25:29.413Z,1.3
2023-01-11T07:26:39.079Z,1.8
2023-01-11T07:27:46.739Z,1.7
2023-01-11T07:28:55.421Z,1.4
2023-01-11T07:30:05.150Z,1.6
2023-01-11T07:31:13.939Z,1.9
2023-01-11T07:32:23.574Z,1.6
2023-01-11T07:33:33.241Z,1.7
2023-01-11T07:34:42.007Z,1.7
2023-01-11T07:35:51.838Z,2.2
2023-01-11T07:37:00.522Z,1.8
2023-01-11T07:38:09.283Z,1.5
2023-01-11T07:39:19.031Z,1.9
2023-01-11T07:40:27.715Z,1.7
2023-01-11T07:41:39.115Z,2
2023-01-11T07:42:48.113Z,1.8
2023-01-11T07:43:57.782Z,1.9
2023-01-11T07:45:07.475Z,2.3
2023-01-11T07:46:17.259Z,2
2023-01-11T07:47:26.863Z,2.3
2023-01-11T07:48:36.587Z,2.6
2023-01-11T07:49:44.232Z,2.1
2023-01-11T07:50:53.958Z,2.3
2023-01-11T07:52:02.575Z,2
2023-01-11T07:53:11.300Z,2.7
2023-01-11T07:54:21.071Z,2.7
2023-01-11T07:55:29.738Z,2.8
2023-01-11T07:56:38.410Z,2.4
2023-01-11T07:57:48.092Z,1.8
2023-01-11T07:58:55.742Z,1.9
2023-01-11T08:00:05.417Z,2.1
2023-01-11T08:01:14.080Z,2.4
2023-01-11T08:02:23.949Z,1.8
2023-01-11T08:03:33.607Z,2.7
2023-01-11T08:04:43.117Z,1.7
2023-01-11T08:05:52.948Z,1.8
2023-01-11T08:07:02.606Z,2.7
2023-01-11T08:08:12.268Z,2.4
2023-01-11T08:09:21.929Z,2.3
2023-01-11T08:10:31.593Z,2.3
2023-01-11T08:11:41.277Z,1.7
2023-01-11T08:12:51.652Z,1.9
2023-01-11T08:13:58.635Z,1.7
2023-01-11T08:15:08.281Z,1.6
2023-01-11T08:16:17.999Z,1.3
2023-01-11T08:17:25.641Z,1.3
2023-01-11T08:18:35.313Z,1.1
2023-01-11T08:19:44.998Z,1.4
2023-01-11T08:20:53.725Z,1.3
2023-01-11T08:22:03.441Z,1.2
2023-01-11T08:23:13.123Z,1.4
2023-01-11T08:24:21.799Z,1.3
2023-01-11T08:25:31.470Z,0.9
2023-01-11T08:26:39.142Z,1.1
2023-01-11T08:27:48.839Z,1.2
2023-01-11T08:28:57.512Z,1
2023-01-11T08:30:06.183Z,0.8
2023-01-11T08:31:15.881Z,1.1
2023-01-11T08:32:24.492Z,0.9
2023-01-11T08:33:33.153Z,1
2023-01-11T08:34:42.847Z,1.1
2023-01-11T08:35:53.500Z,1.2
2023-01-11T08:37:03.217Z,0.9
2023-01-11T08:38:12.873Z,1.3
2023-01-11T08:39:21.511Z,1.1
2023-01-11T08:40:31.212Z,1.5
2023-01-11T08:41:38.884Z,1.6
2023-01-11T08:42:48.588Z,1.7
2023-01-11T08:43:58.266Z,2.1
2023-01-11T08:45:05.938Z,1.8
2023-01-11T08:46:15.780Z,2.4
2023-01-11T08:47:24.320Z,2.3
2023-01-11T08:48:31.987Z,2.1
2023-01-11T08:49:41.706Z,2.9
2023-01-11T08:50:49.448Z,1.8
2023-01-11T08:51:59.139Z,3.7
2023-01-11T08:53:09.565Z,1.4
2023-01-11T08:54:18.487Z,1.2
2023-01-11T08:55:28.157Z,1.2
2023-01-11T08:56:36.856Z,1.1
2023-01-11T08:57:45.575Z,1.1
2023-01-11T08:58:55.258Z,0.7
2023-01-11T09:00:03.960Z,0.9
2023-01-11T09:01:11.667Z,1.3
2023-01-11T09:02:20.440Z,1.3
2023-01-11T09:03:29.080Z,1.4
2023-01-11T09:04:38.758Z,1.4
2023-01-11T09:05:47.455Z,0.8
2023-01-11T09:06:57.134Z,1
2023-01-11T09:08:06.832Z,1.2
2023-01-11T09:09:14.541Z,1.3
2023-01-11T09:10:24.222Z,1
2023-01-11T09:11:33.888Z,1.3
2023-01-11T09:12:42.608Z,1.2
2023-01-11T09:13:52.299Z,0.8
2023-01-11T09:15:00.957Z,0.7
2023-01-11T09:16:09.652Z,0.9
2023-01-11T09:17:19.305Z,0.8
2023-01-11T09:18:28.013Z,0.9
2023-01-11T09:19:36.679Z,0.8
2023-01-11T09:20:46.388Z,0.7
2023-01-11T09:21:55.053Z,0.7
2023-01-11T09:23:04.756Z,1
2023-01-11T09:24:14.432Z,0.6
2023-01-11T09:25:23.141Z,1
2023-01-11T09:26:32.834Z,0.5
2023-01-11T09:27:41.561Z,0.8
2023-01-11T09:28:50.306Z,2.2
2023-01-11T09:29:59.908Z,2
2023-01-11T09:31:08.615Z,1.5
2023-01-11T09:32:18.300Z,0.4
2023-01-11T09:33:26.074Z,0.6
2023-01-11T09:34:34.749Z,0.5
2023-01-11T09:35:44.425Z,0.8
2023-01-11T09:36:53.108Z,1.3
2023-01-11T09:38:01.866Z,1.1
2023-01-11T09:39:11.543Z,0.7
2023-01-11T09:40:21.214Z,0.6
2023-01-11T09:41:30.932Z,0.4
2023-01-11T09:42:40.623Z,1
2023-01-11T09:43:50.283Z,1
2023-01-11T09:44:59.953Z,1.1
2023-01-11T09:46:08.869Z,1.4
2023-01-11T09:47:17.305Z,1.3
2023-01-11T09:48:26.965Z,1
2023-01-11T09:49:35.683Z,1.1
2023-01-11T09:50:45.423Z,1
2023-01-11T09:51:55.102Z,0.7
2023-01-11T09:53:02.797Z,0.7
2023-01-11T09:54:12.509Z,0.6
2023-01-11T09:55:21.227Z,0.6
2023-01-11T09:56:30.895Z,0.5
2023-01-11T09:57:40.738Z,0.8
2023-01-11T09:58:47.526Z,0.6
2023-01-11T09:59:57.322Z,0.7
2023-01-11T10:01:07.150Z,0.6
2023-01-11T10:02:19.793Z,0.8
2023-01-11T10:03:29.596Z,0.7
2023-01-11T10:04:37.378Z,0.7
2023-01-11T10:05:46.972Z,0.5
2023-01-11T10:06:56.716Z,0.5
2023-01-11T10:18:23.865Z,0.6
2023-01-11T10:18:24.997Z,0.5
2023-01-11T10:18:34.722Z,0.7
2023-01-11T10:18:58.236Z,0.5
2023-01-11T10:19:51.145Z,0.6
2023-01-11T10:20:59.763Z,0.6
2023-01-11T10:22:09.450Z,0.5
2023-01-11T10:23:18.099Z,0.6
2023-01-11T10:24:27.821Z,0.3
2023-01-11T10:25:37.527Z,0.4
2023-01-11T10:26:47.337Z,0.5
2023-01-11T10:27:55.991Z,0.5
2023-01-11T10:29:05.698Z,0.4
2023-01-11T10:30:14.398Z,0.3
2023-01-11T10:31:24.148Z,0.9
2023-01-11T10:32:32.805Z,0.4
2023-01-11T10:33:41.638Z,0.3
2023-01-11T10:34:50.298Z,0.3
2023-01-11T10:35:59.068Z,0.5
2023-01-11T10:37:08.778Z,0.5
2023-01-11T10:38:17.484Z,0.7
2023-01-11T10:39:26.144Z,0.9
2023-01-11T10:40:35.883Z,0.7
2023-01-11T10:41:45.616Z,0.6
2023-01-11T10:42:55.379Z,0.4
2023-01-11T10:44:05.119Z,0.6
2023-01-11T10:45:13.798Z,0.6
2023-01-11T10:46:23.498Z,0.6
2023-01-11T10:47:32.327Z,0.6
2023-01-11T10:48:41.188Z,0.8
2023-01-11T10:49:51.003Z,0.5
2023-01-11T10:50:59.776Z,0.7
2023-01-11T10:53:18.183Z,0.7
2023-01-11T10:54:26.899Z,0.8
2023-01-11T10:55:36.555Z,0.6
2023-01-11T10:57:01.620Z,0.3
2023-01-11T10:57:59.578Z,0.6
2023-01-11T10:59:06.676Z,0.7
2023-01-11T11:00:15.397Z,0.6
2023-01-11T11:01:25.128Z,0.5
2023-01-11T11:02:34.860Z,0.6
2023-01-11T11:03:42.502Z,0.5
2023-01-11T11:04:52.337Z,0.4
2023-01-11T11:06:02.022Z,0.3
2023-01-11T11:07:11.791Z,0.2
2023-01-11T11:08:21.437Z,0.2
2023-01-11T11:09:29.165Z,0.3
2023-01-11T11:10:38.866Z,0.7
2023-01-11T11:11:48.573Z,1.1
2023-01-11T11:12:56.238Z,1.2
2023-01-11T11:14:05.931Z,0.4
2023-01-11T11:15:15.606Z,0.4
2023-01-11T11:16:24.412Z,0.3
2023-01-11T11:17:34.041Z,0.6
2023-01-11T11:18:42.723Z,0.6
2023-01-11T11:19:52.410Z,0.4
2023-01-11T11:21:01.145Z,0.4
2023-01-11T11:22:09.846Z,0.6
2023-01-11T11:23:19.540Z,0.4
2023-01-11T11:24:28.226Z,0.5
2023-01-11T11:25:36.945Z,0.4
2023-01-11T11:26:45.736Z,0.4
2023-01-11T11:27:54.417Z,0.4
2023-01-11T11:29:04.142Z,0.4
2023-01-11T11:30:13.846Z,0.3
2023-01-11T11:31:21.655Z,0.3
2023-01-11T11:32:31.300Z,0.4
2023-01-11T11:33:39.979Z,0.4
2023-01-11T11:34:48.674Z,0.2
2023-01-11T11:35:58.336Z,0.4
2023-01-11T11:37:06.062Z,0.3
2023-01-11T11:38:15.779Z,0.3
2023-01-11T11:39:25.479Z,0.3
2023-01-11T11:40:33.158Z,0.4
2023-01-11T11:41:43.960Z,0.4
2023-01-11T11:42:52.638Z,0.2
2023-01-11T11:44:01.316Z,0.2
2023-01-11T11:45:11.061Z,0.4
2023-01-11T11:46:27.902Z,0.3
2023-01-11T11:47:35.452Z,0.4
2023-01-11T11:48:45.111Z,0.3
2023-01-11T11:49:53.802Z,0.4
2023-01-11T11:51:02.486Z,0.2
2023-01-11T11:52:11.207Z,0.3
2023-01-11T11:53:19.858Z,0.3
2023-01-11T11:54:29.566Z,0.4
2023-01-11T11:55:38.211Z,0.3
2023-01-11T11:56:47.933Z,0.3
2023-01-11T11:57:57.565Z,0.3
2023-01-11T11:59:06.216Z,0.3
2023-01-11T12:00:15.879Z,0.3
2023-01-11T12:01:25.549Z,0.4
2023-01-11T12:02:35.296Z,0.3
2023-01-11T12:03:44.895Z,0.3
2023-01-11T12:04:54.645Z,0.2
2023-01-11T12:06:04.304Z,0.3
2023-01-11T12:07:12.959Z,0.3
2023-01-11T12:08:20.689Z,0.5
2023-01-11T12:09:30.389Z,0.5
2023-01-11T12:10:38.012Z,0.3
2023-01-11T12:11:46.678Z,0.3
2023-01-11T12:12:56.385Z,0.2
2023-01-11T12:14:04.031Z,0.2
2023-01-11T12:15:13.704Z,0.4
2023-01-11T12:16:22.457Z,0.2
2023-01-11T12:17:32.069Z,0.4
2023-01-11T12:18:41.735Z,0.6
2023-01-11T12:19:50.416Z,0.8
2023-01-11T12:21:00.094Z,0.9
2023-01-11T12:22:09.759Z,0.6
2023-01-11T12:23:18.423Z,0.5
2023-01-11T12:24:28.266Z,0.4
2023-01-11T12:25:36.734Z,0.3
2023-01-11T12:26:46.655Z,0.4
2023-01-11T12:27:56.184Z,0.4
2023-01-11T12:29:03.923Z,0.4
2023-01-11T12:30:12.503Z,0.3
2023-01-11T12:31:22.187Z,0.3
2023-01-11T12:32:30.852Z,0.4
2023-01-11T12:33:40.507Z,0.4
2023-01-11T12:34:50.173Z,0.5
2023-01-11T12:35:57.825Z,0.3
2023-01-11T12:37:07.506Z,0.3
2023-01-11T12:38:16.205Z,0.4
2023-01-11T12:39:24.902Z,0.3
2023-01-11T12:40:34.575Z,0.2
2023-01-11T12:41:42.227Z,0.3
2023-01-11T12:42:51.918Z,0.2
2023-01-11T12:44:01.602Z,0.5
2023-01-11T12:45:09.742Z,0.4
2023-01-11T12:46:19.956Z,0.6
2023-01-11T12:47:28.044Z,0.7
2023-01-11T12:48:37.805Z,0.6
2023-01-11T12:49:47.598Z,0.7
2023-01-11T12:50:57.257Z,0.4
2023-01-11T12:52:07.743Z,0.5
2023-01-11T12:53:16.305Z,0.6
2023-01-11T12:54:23.308Z,0.3
2023-01-11T12:55:32.968Z,0.5
2023-01-11T12:56:41.698Z,0.4
2023-01-11T12:57:51.376Z,0.6
2023-01-11T12:59:01.027Z,0.6
2023-01-11T13:00:09.714Z,0.4
2023-01-11T13:01:19.605Z,0.5
2023-01-11T13:02:29.261Z,0.4
2023-01-11T13:03:37.846Z,0.5
2023-01-11T13:04:47.499Z,0.5
2023-01-11T13:05:55.198Z,0.6
2023-01-11T13:07:05.014Z,0.4
2023-01-11T13:08:14.702Z,0.3
2023-01-11T13:09:23.353Z,0.7
2023-01-11T13:10:33.190Z,0.8
2023-01-11T13:11:42.883Z,0.9
2023-01-11T13:12:50.689Z,0.6
2023-01-11T13:14:00.635Z,0.8
2023-01-11T13:15:10.497Z,1.2
2023-01-11T13:16:20.305Z,1
2023-01-11T13:17:30.070Z,1.1
2023-01-11T13:18:39.765Z,1.3
2023-01-11T13:19:49.541Z,1.4
2023-01-11T13:21:01.552Z,1.6
2023-01-11T13:22:09.863Z,1.5
2023-01-11T13:23:19.569Z,1.5
2023-01-11T13:24:27.261Z,1.5
2023-01-11T13:25:35.925Z,1.5
2023-01-11T13:26:45.735Z,1.6
2023-01-11T13:27:54.344Z,1.2
2023-01-11T13:29:04.057Z,1
2023-01-11T13:30:13.711Z,1
2023-01-11T13:31:21.502Z,1.5
2023-01-11T13:32:31.077Z,1.3
2023-01-11T13:33:39.768Z,1.1
2023-01-11T13:34:48.460Z,1.1
2023-01-11T13:35:59.067Z,1
2023-01-11T13:37:08.808Z,1.2
2023-01-11T13:38:18.623Z,1.1
2023-01-11T13:39:28.389Z,1.3
2023-01-11T13:40:37.122Z,0.8
2023-01-11T13:41:46.872Z,1.1
2023-01-11T13:42:55.559Z,1
2023-01-11T13:44:05.298Z,1.1
2023-01-11T13:45:14.948Z,1.2
2023-01-11T13:46:22.886Z,1.4
2023-01-11T13:47:32.470Z,1.3
2023-01-11T13:48:41.151Z,1.1
2023-01-11T13:49:50.947Z,1
2023-01-11T13:51:00.661Z,0.7
2023-01-11T13:52:09.336Z,1
2023-01-11T13:53:18.040Z,0.9
2023-01-11T13:54:27.698Z,0.8
2023-01-11T13:55:37.372Z,0.7
2023-01-11T13:56:47.114Z,1
2023-01-11T13:57:56.858Z,0.9
2023-01-11T13:59:06.568Z,0.7
2023-01-11T14:00:16.302Z,0.8
2023-01-11T14:01:26.105Z,0.7
2023-01-11T14:02:38.116Z,0.8
2023-01-11T14:03:46.610Z,0.7
2023-01-11T14:04:56.304Z,0.7
2023-01-11T14:06:06.160Z,0.5
2023-01-11T14:07:14.926Z,0.7
2023-01-11T14:08:24.647Z,0.5
2023-01-11T14:09:34.422Z,0.6
2023-01-11T14:10:44.165Z,0.6
2023-01-11T14:11:53.906Z,0.6
2023-01-11T14:13:03.629Z,0.7
2023-01-11T14:14:13.357Z,0.8
2023-01-11T14:15:23.098Z,1
2023-01-11T14:16:31.849Z,0.7
2023-01-11T14:17:41.593Z,0.4
2023-01-11T14:18:51.304Z,0.4
2023-01-11T14:20:01.057Z,0.5
2023-01-11T14:21:09.765Z,0.6
2023-01-11T14:22:19.545Z,0.5
2023-01-11T14:23:29.332Z,0.5
2023-01-11T14:24:39.056Z,0.5
2023-01-11T14:25:47.874Z,0.4
2023-01-11T14:26:57.750Z,0.3
2023-01-11T14:28:07.504Z,0.3
2023-01-11T14:29:17.235Z,0.5
2023-01-11T14:30:27.001Z,0.4
2023-01-11T14:31:36.777Z,0.4
2023-01-11T14:32:46.520Z,0.4
2023-01-11T14:33:56.227Z,0.3
2023-01-11T14:35:06.059Z,0.5
2023-01-11T14:36:15.574Z,0.4
2023-01-11T14:37:25.241Z,0.5
2023-01-11T14:38:32.935Z,0.7
2023-01-11T14:39:43.685Z,0.9
2023-01-11T14:40:53.433Z,1
2023-01-11T14:42:03.188Z,1.2
2023-01-11T14:43:12.951Z,0.2
2023-01-11T14:44:22.719Z,0.2
2023-01-11T14:45:32.501Z,0.4
2023-01-11T14:46:41.262Z,1.1
2023-01-11T14:47:50.973Z,1.4
2023-01-11T14:49:00.703Z,1.8
2023-01-11T14:50:10.516Z,1.5
2023-01-11T14:51:22.233Z,1.2
2023-01-11T14:52:39.458Z,0.7
2023-01-11T14:53:41.732Z,0.5
2023-01-11T14:54:51.478Z,0.6
2023-01-11T14:56:01.249Z,0.6
2023-01-11T14:57:10.003Z,0.3
2023-01-11T14:58:19.753Z,0.3
2023-01-11T14:59:28.484Z,0.4
2023-01-11T15:00:38.298Z,0.5
2023-01-11T15:01:48.090Z,0.4
2023-01-11T15:02:55.812Z,0.8
2023-01-11T15:04:05.565Z,0.6
2023-01-11T15:05:15.237Z,0.6
2023-01-11T15:06:24.503Z,0.7
2023-01-11T15:07:34.250Z,0.8
2023-01-11T15:08:43.180Z,0.8
2023-01-11T15:09:51.891Z,0.7
2023-01-11T15:11:01.625Z,0.7
2023-01-11T15:12:10.332Z,0.6
2023-01-11T15:13:20.094Z,1.8
2023-01-11T15:14:29.817Z,1.1
2023-01-11T15:15:39.535Z,0.8
2023-01-11T15:16:49.247Z,0.5
2023-01-11T15:17:57.967Z,0.5
2023-01-11T15:19:07.721Z,0.6
2023-01-11T15:20:17.464Z,0.7
2023-01-11T15:21:27.164Z,0.9
2023-01-11T15:22:36.898Z,0.7
2023-01-11T15:23:46.713Z,0.8
2023-01-11T15:24:55.457Z,1
2023-01-11T15:26:05.171Z,1.1
2023-01-11T15:27:13.965Z,0.8
2023-01-11T15:28:23.591Z,0.7
2023-01-11T15:29:33.303Z,1
2023-01-11T15:30:43.052Z,0.9
2023-01-11T15:31:52.843Z,0.8
2023-01-11T15:33:02.495Z,0.8
2023-01-11T15:34:12.211Z,0.9
2023-01-11T15:35:21.979Z,0.6
2023-01-11T15:36:30.633Z,0.9
2023-01-11T15:37:40.350Z,1.1
2023-01-11T15:38:50.121Z,0.8
2023-01-11T15:39:59.832Z,0.9
2023-01-11T15:41:09.605Z,0.7
2023-01-11T15:42:19.349Z,1
2023-01-11T15:43:29.066Z,1
2023-01-11T15:44:37.764Z,0.8
2023-01-11T15:45:46.478Z,0.9
2023-01-11T15:46:56.372Z,0.9
2023-01-11T15:48:06.010Z,0.9
2023-01-11T15:49:15.740Z,1
2023-01-11T15:50:25.491Z,0.8
2023-01-11T15:51:34.186Z,0.9
2023-01-11T15:52:43.904Z,0.8
2023-01-11T15:53:53.637Z,0.7
2023-01-11T15:55:03.391Z,0.8
2023-01-11T15:56:13.114Z,0.8
2023-01-11T15:57:21.812Z,0.4
2023-01-11T15:58:31.528Z,0.6
2023-01-11T15:59:41.268Z,0.5
2023-01-11T16:00:50.059Z,0.4
2023-01-11T16:01:59.756Z,0.6
2023-01-11T16:03:08.483Z,0.5
2023-01-11T16:04:18.271Z,0.4
2023-01-11T16:05:28.042Z,0.6